sensor_id;sensor_type;location;lat;lon;timestamp;pressure;altitude;pressure_sealevel;temperature;humidity
14041;BME280;7095;51.388;6.196;2023-01-29T00:00:12;55686.69;;;-145.32;100.00
14041;BME280;7095;51.388;6.196;2023-01-29T00:02:41;55634.94;;;-145.32;100.00
14041;BME280;7095;51.388;6.196;2023-01-29T00:05:12;55601.13;;;-145.32;100.00
14041;BME280;7095;51.388;6.196;2023-01-29T00:07:54;55493.72;;;-145.32;100.00
14041;BME280;7095;51.388;6.196;2023-01-29T00:10:24;55571.28;;;-145.32;100.00
14041;BME280;7095;51.388;6.196;2023-01-29T00:12:52;55613.06;;;-145.32;100.00
14041;BME280;7095;51.388;6.196;2023-01-29T00:15:21;55463.88;;;-145.32;100.00
14041;BME280;7095;51.388;6.196;2023-01-29T00:17:53;55400.22;;;-145.32;100.00
14041;BME280;7095;51.388;6.196;2023-01-29T00:20:23;55384.31;;;-145.32;100.00
14041;BME280;7095;51.388;6.196;2023-01-29T00:22:52;55290.81;;;-145.32;100.00
14041;BME280;7095;51.388;6.196;2023-01-29T00:25:20;55290.81;;;-145.32;100.00
14041;BME280;7095;51.388;6.196;2023-01-29T00:27:49;55257.00;;;-145.32;100.00
14041;BME280;7095;51.388;6.196;2023-01-29T00:30:18;55318.66;;;-145.32;100.00
14041;BME280;7095;51.388;6.196;2023-01-29T00:32:47;55424.09;;;-145.32;100.00
14041;BME280;7095;51.388;6.196;2023-01-29T00:35:16;55525.53;;;-145.32;100.00
14041;BME280;7095;51.388;6.196;2023-01-29T00:37:46;55585.22;;;-145.32;100.00
14041;BME280;7095;51.388;6.196;2023-01-29T00:40:17;55627.00;;;-145.32;100.00
14041;BME280;7095;51.388;6.196;2023-01-29T00:42:46;55545.44;;;-145.32;100.00
14041;BME280;7095;51.388;6.196;2023-01-29T00:45:32;55543.44;;;-145.32;100.00
14041;BME280;7095;51.388;6.196;2023-01-29T00:48:05;55479.78;;;-145.32;100.00
14041;BME280;7095;51.388;6.196;2023-01-29T00:50:33;55320.66;;;-145.32;100.00
14041;BME280;7095;51.388;6.196;2023-01-29T00:53:03;55350.50;;;-145.32;100.00
14041;BME280;7095;51.388;6.196;2023-01-29T00:55:34;55390.28;;;-145.32;100.00
14041;BME280;7095;51.388;6.196;2023-01-29T00:58:03;55330.59;;;-145.32;100.00
14041;BME280;7095;51.388;6.196;2023-01-29T01:00:32;55388.28;;;-145.32;100.00
14041;BME280;7095;51.388;6.196;2023-01-29T01:03:00;55404.19;;;-145.32;100.00
14041;BME280;7095;51.388;6.196;2023-01-29T01:05:32;55364.41;;;-145.32;100.00
14041;BME280;7095;51.388;6.196;2023-01-29T01:08:01;55400.22;;;-145.32;100.00
14041;BME280;7095;51.388;6.196;2023-01-29T01:10:32;55481.78;;;-145.32;100.00
14041;BME280;7095;51.388;6.196;2023-01-29T01:13:01;55428.06;;;-145.32;100.00
14041;BME280;7095;51.388;6.196;2023-01-29T01:15:33;55497.69;;;-145.32;100.00
14041;BME280;7095;51.388;6.196;2023-01-29T01:18:03;55332.59;;;-145.32;100.00
14041;BME280;7095;51.388;6.196;2023-01-29T01:20:34;55274.91;;;-145.32;100.00
14041;BME280;7095;51.388;6.196;2023-01-29T01:23:03;55370.38;;;-145.32;100.00
14041;BME280;7095;51.388;6.196;2023-01-29T01:25:33;55535.50;;;-145.32;100.00
14041;BME280;7095;51.388;6.196;2023-01-29T01:28:02;55589.19;;;-145.32;100.00
14041;BME280;7095;51.388;6.196;2023-01-29T01:30:31;55565.31;;;-145.32;100.00
14041;BME280;7095;51.388;6.196;2023-01-29T01:32:59;55559.34;;;-145.32;100.00
14041;BME280;7095;51.388;6.196;2023-01-29T01:35:29;55565.31;;;-145.32;100.00
14041;BME280;7095;51.388;6.196;2023-01-29T01:37:58;55587.22;;;-145.32;100.00
14041;BME280;7095;51.388;6.196;2023-01-29T01:40:26;55623.03;;;-145.32;100.00
14041;BME280;7095;51.388;6.196;2023-01-29T01:42:58;55561.34;;;-145.32;100.00
14041;BME280;7095;51.388;6.196;2023-01-29T01:45:29;55463.88;;;-145.32;100.00
14041;BME280;7095;51.388;6.196;2023-01-29T01:48:00;55348.50;;;-145.32;100.00
14041;BME280;7095;51.388;6.196;2023-01-29T01:50:34;55440.00;;;-145.32;100.00
14041;BME280;7095;51.388;6.196;2023-01-29T01:53:06;55505.66;;;-145.32;100.00
14041;BME280;7095;51.388;6.196;2023-01-29T01:55:38;55503.66;;;-145.32;100.00
14041;BME280;7095;51.388;6.196;2023-01-29T01:58:15;55467.84;;;-145.32;100.00
14041;BME280;7095;51.388;6.196;2023-01-29T02:00:46;55412.16;;;-145.32;100.00
14041;BME280;7095;51.388;6.196;2023-01-29T02:03:16;55408.19;;;-145.32;100.00
14041;BME280;7095;51.388;6.196;2023-01-29T02:06:04;55388.28;;;-145.32;100.00
14041;BME280;7095;51.388;6.196;2023-01-29T02:08:55;55386.28;;;-145.32;100.00
14041;BME280;7095;51.388;6.196;2023-01-29T02:11:42;55434.03;;;-145.32;100.00
14041;BME280;7095;51.388;6.196;2023-01-29T02:14:12;55471.84;;;-145.32;100.00
14041;BME280;7095;51.388;6.196;2023-01-29T02:16:41;55519.56;;;-145.32;100.00
14041;BME280;7095;51.388;6.196;2023-01-29T02:19:15;55513.59;;;-145.32;100.00
14041;BME280;7095;51.388;6.196;2023-01-29T02:22:06;55623.03;;;-145.32;100.00
14041;BME280;7095;51.388;6.196;2023-01-29T02:25:02;55666.78;;;-145.32;100.00
14041;BME280;7095;51.388;6.196;2023-01-29T02:30:40;55778.19;;;-145.32;100.00
14041;BME280;7095;51.388;6.196;2023-01-29T02:33:16;55718.50;;;-145.32;100.00
14041;BME280;7095;51.388;6.196;2023-01-29T02:35:55;55615.06;;;-145.32;100.00
14041;BME280;7095;51.388;6.196;2023-01-29T02:38:35;55531.50;;;-145.32;100.00
14041;BME280;7095;51.388;6.196;2023-01-29T02:41:12;55648.88;;;-145.32;100.00
14041;BME280;7095;51.388;6.196;2023-01-29T02:43:45;55690.66;;;-145.32;100.00
14041;BME280;7095;51.388;6.196;2023-01-29T02:46:20;55869.69;;;-145.32;100.00
14041;BME280;7095;51.388;6.196;2023-01-29T02:48:54;56156.19;;;-145.32;100.00
14041;BME280;7095;51.388;6.196;2023-01-29T02:51:30;56379.03;;;-145.32;100.00
14041;BME280;7095;51.388;6.196;2023-01-29T02:54:05;56536.22;;;-145.32;100.00
14041;BME280;7095;51.388;6.196;2023-01-29T02:56:39;56625.78;;;-145.32;100.00
14041;BME280;7095;51.388;6.196;2023-01-29T02:59:14;56641.69;;;-145.32;100.00
14041;BME280;7095;51.388;6.196;2023-01-29T03:01:48;56546.19;;;-145.32;100.00
14041;BME280;7095;51.388;6.196;2023-01-29T03:04:23;56781.00;;;-145.32;100.00
14041;BME280;7095;51.388;6.196;2023-01-29T03:06:57;56502.41;;;-145.32;100.00
14041;BME280;7095;51.388;6.196;2023-01-29T03:09:31;56550.16;;;-145.32;100.00
14041;BME280;7095;51.388;6.196;2023-01-29T03:12:06;56697.41;;;-145.32;100.00
14041;BME280;7095;51.388;6.196;2023-01-29T03:14:48;56717.31;;;-145.32;100.00
14041;BME280;7095;51.388;6.196;2023-01-29T03:17:40;56767.06;;;-145.32;100.00
14041;BME280;7095;51.388;6.196;2023-01-29T03:20:15;56697.41;;;-145.32;100.00
14041;BME280;7095;51.388;6.196;2023-01-29T03:22:49;56779.00;;;-145.32;100.00
14041;BME280;7095;51.388;6.196;2023-01-29T03:25:20;56940.19;;;-145.32;100.00
14041;BME280;7095;51.388;6.196;2023-01-29T03:28:09;56802.88;;;-145.32;100.00
14041;BME280;7095;51.388;6.196;2023-01-29T03:31:00;56952.13;;;-145.32;100.00
14041;BME280;7095;51.388;6.196;2023-01-29T03:33:59;57374.06;;;-145.32;100.00
14041;BME280;7095;51.388;6.196;2023-01-29T03:36:34;57139.22;;;-145.32;100.00
14041;BME280;7095;51.388;6.196;2023-01-29T03:39:07;57099.41;;;-145.32;100.00
14041;BME280;7095;51.388;6.196;2023-01-29T03:41:41;57175.03;;;-145.32;100.00
14041;BME280;7095;51.388;6.196;2023-01-29T03:44:15;57087.47;;;-145.32;100.00
14041;BME280;7095;51.388;6.196;2023-01-29T03:46:51;56952.13;;;-145.32;100.00
14041;BME280;7095;51.388;6.196;2023-01-29T03:49:29;56991.94;;;-145.32;100.00
14041;BME280;7095;51.388;6.196;2023-01-29T03:52:03;56952.13;;;-145.32;100.00
14041;BME280;7095;51.388;6.196;2023-01-29T03:54:43;56904.38;;;-145.32;100.00
14041;BME280;7095;51.388;6.196;2023-01-29T03:57:22;56989.94;;;-145.32;100.00
14041;BME280;7095;51.388;6.196;2023-01-29T04:00:01;56940.19;;;-145.32;100.00
14041;BME280;7095;51.388;6.196;2023-01-29T04:03:02;57035.72;;;-145.32;100.00
14041;BME280;7095;51.388;6.196;2023-01-29T04:05:38;56892.44;;;-145.32;100.00
14041;BME280;7095;51.388;6.196;2023-01-29T04:08:23;56934.22;;;-145.32;100.00
14041;BME280;7095;51.388;6.196;2023-01-29T04:10:55;57001.88;;;-145.32;100.00
14041;BME280;7095;51.388;6.196;2023-01-29T04:13:28;57001.88;;;-145.32;100.00
14041;BME280;7095;51.388;6.196;2023-01-29T04:15:59;57169.06;;;-145.32;100.00
14041;BME280;7095;51.388;6.196;2023-01-29T04:18:49;57183.00;;;-145.32;100.00
14041;BME280;7095;51.388;6.196;2023-01-29T04:21:26;57212.84;;;-145.32;100.00
14041;BME280;7095;51.388;6.196;2023-01-29T04:23:55;57230.75;;;-145.32;100.00
14041;BME280;7095;51.388;6.196;2023-01-29T04:26:34;57433.78;;;-145.32;100.00
14041;BME280;7095;51.388;6.196;2023-01-29T04:29:20;57583.06;;;-145.32;100.00
14041;BME280;7095;51.388;6.196;2023-01-29T04:32:04;57983.16;;;-145.32;100.00
14041;BME280;7095;51.388;6.196;2023-01-29T04:34:49;58245.94;;;-145.32;100.00
14041;BME280;7095;51.388;6.196;2023-01-29T04:37:28;58492.81;;;-145.32;100.00
14041;BME280;7095;51.388;6.196;2023-01-29T04:40:10;58845.25;;;-145.32;100.00
14041;BME280;7095;51.388;6.196;2023-01-29T04:42:48;59126.00;;;-145.32;100.00
14041;BME280;7095;51.388;6.196;2023-01-29T04:45:23;59510.38;;;-145.32;100.00
14041;BME280;7095;51.388;6.196;2023-01-29T04:48:00;59902.72;;;-145.32;100.00
14041;BME280;7095;51.388;6.196;2023-01-29T04:50:35;60338.97;;;-145.32;100.00
14041;BME280;7095;51.388;6.196;2023-01-29T04:53:14;60607.91;;;-145.32;100.00
14041;BME280;7095;51.388;6.196;2023-01-29T04:55:45;60934.66;;;-145.32;100.00
14041;BME280;7095;51.388;6.196;2023-01-29T04:58:24;61261.41;;;-145.32;100.00
14041;BME280;7095;51.388;6.196;2023-01-29T05:00:53;61994.78;;;-145.32;100.00
14041;BME280;7095;51.388;6.196;2023-01-29T05:03:24;62214.03;;;-145.32;100.00
14041;BME280;7095;51.388;6.196;2023-01-29T05:05:55;62989.44;;;-145.32;100.00
14041;BME280;7095;51.388;6.196;2023-01-29T05:08:27;63442.03;;;-145.32;100.00
14041;BME280;7095;51.388;6.196;2023-01-29T05:10:59;64403.22;;;-145.32;100.00
14041;BME280;7095;51.388;6.196;2023-01-29T05:13:29;65564.19;;;-145.32;100.00
14041;BME280;7095;51.388;6.196;2023-01-29T05:16:01;66382.28;;;-145.32;100.00
14041;BME280;7095;51.388;6.196;2023-01-29T05:18:32;66877.25;;;-145.32;100.00
14041;BME280;7095;51.388;6.196;2023-01-29T05:21:02;66599.81;;;-145.32;100.00
14041;BME280;7095;51.388;6.196;2023-01-29T05:23:34;68134.91;;;-145.32;100.00
14041;BME280;7095;51.388;6.196;2023-01-29T05:26:03;66823.34;;;-145.32;100.00
14041;BME280;7095;51.388;6.196;2023-01-29T05:28:32;68334.56;;;-145.32;100.00
14041;BME280;7095;51.388;6.196;2023-01-29T05:30:59;67599.84;;;-145.32;100.00
14041;BME280;7095;51.388;6.196;2023-01-29T05:33:29;68356.53;;;-145.32;100.00
14041;BME280;7095;51.388;6.196;2023-01-29T05:35:59;68100.94;;;-145.32;100.00
14041;BME280;7095;51.388;6.196;2023-01-29T05:38:27;68202.78;;;-145.32;100.00
14041;BME280;7095;51.388;6.196;2023-01-29T05:40:58;68548.22;;;-145.32;100.00
14041;BME280;7095;51.388;6.196;2023-01-29T05:43:27;69369.03;;;-145.32;100.00
14041;BME280;7095;51.388;6.196;2023-01-29T05:45:57;68172.81;;;-145.32;100.00
14041;BME280;7095;51.388;6.196;2023-01-29T05:48:27;68011.09;;;-145.32;100.00
14041;BME280;7095;51.388;6.196;2023-01-29T05:50:58;68891.69;;;-145.32;100.00
14041;BME280;7095;51.388;6.196;2023-01-29T05:53:27;68909.69;;;-145.32;100.00
14041;BME280;7095;51.388;6.196;2023-01-29T05:55:56;69896.38;;;-145.32;100.00
14041;BME280;7095;51.388;6.196;2023-01-29T05:58:29;70675.56;;;-145.32;100.00
14041;BME280;7095;51.388;6.196;2023-01-29T06:01:07;70931.31;;;-145.32;100.00
14041;BME280;7095;51.388;6.196;2023-01-29T06:03:35;71187.13;;;-145.32;100.00
14041;BME280;7095;51.388;6.196;2023-01-29T06:06:04;72466.34;;;-145.32;100.00
14041;BME280;7095;51.388;6.196;2023-01-29T06:08:33;72210.47;;;-145.32;100.00
14041;BME280;7095;51.388;6.196;2023-01-29T06:11:01;72210.47;;;-145.32;100.00
14041;BME280;7095;51.388;6.196;2023-01-29T06:13:31;72978.16;;;-145.32;100.00
14041;BME280;7095;51.388;6.196;2023-01-29T06:16:03;73490.06;;;-145.32;100.00
14041;BME280;7095;51.388;6.196;2023-01-29T06:18:32;73746.06;;;-145.32;100.00
14041;BME280;7095;51.388;6.196;2023-01-29T06:21:03;74258.06;;;-145.32;100.00
14041;BME280;7095;51.388;6.196;2023-01-29T06:23:32;74258.06;;;-145.32;100.00
14041;BME280;7095;51.388;6.196;2023-01-29T06:26:02;74770.16;;;-145.32;100.00
14041;BME280;7095;51.388;6.196;2023-01-29T06:28:32;76306.91;;;-145.32;100.00
14041;BME280;7095;51.388;6.196;2023-01-29T06:31:02;74002.03;;;-145.32;100.00
14041;BME280;7095;51.388;6.196;2023-01-29T06:33:49;74514.09;;;-145.32;100.00
14041;BME280;7095;51.388;6.196;2023-01-29T06:36:18;75794.56;;;-145.32;100.00
14041;BME280;7095;51.388;6.196;2023-01-29T06:38:46;75282.31;;;-145.32;100.00
14041;BME280;7095;51.388;6.196;2023-01-29T06:41:17;75026.22;;;-145.32;100.00
14041;BME280;7095;51.388;6.196;2023-01-29T06:43:50;75538.44;;;-145.32;100.00
14041;BME280;7095;51.388;6.196;2023-01-29T06:46:19;75794.56;;;-145.32;100.00
14041;BME280;7095;51.388;6.196;2023-01-29T06:48:48;75794.56;;;-145.32;100.00
14041;BME280;7095;51.388;6.196;2023-01-29T06:51:16;77075.53;;;-145.32;100.00
14041;BME280;7095;51.388;6.196;2023-01-29T06:53:45;74770.16;;;-145.32;100.00
14041;BME280;7095;51.388;6.196;2023-01-29T06:56:13;74258.06;;;-145.32;100.00
14041;BME280;7095;51.388;6.196;2023-01-29T06:58:42;75282.31;;;-145.32;100.00
14041;BME280;7095;51.388;6.196;2023-01-29T07:01:12;72978.16;;;-145.32;100.00
14041;BME280;7095;51.388;6.196;2023-01-29T07:04:00;73234.09;;;-145.32;100.00
14041;BME280;7095;51.388;6.196;2023-01-29T07:06:29;74258.06;;;-145.32;100.00
14041;BME280;7095;51.388;6.196;2023-01-29T07:08:58;72722.25;;;-145.32;100.00
14041;BME280;7095;51.388;6.196;2023-01-29T07:11:29;72466.34;;;-145.32;100.00
14041;BME280;7095;51.388;6.196;2023-01-29T07:13:58;72978.16;;;-145.32;100.00
14041;BME280;7095;51.388;6.196;2023-01-29T07:16:28;71954.59;;;-145.32;100.00
14041;BME280;7095;51.388;6.196;2023-01-29T07:18:57;72978.16;;;-145.32;100.00
14041;BME280;7095;51.388;6.196;2023-01-29T07:21:26;72210.47;;;-145.32;100.00
14041;BME280;7095;51.388;6.196;2023-01-29T07:23:55;72722.25;;;-145.32;100.00
14041;BME280;7095;51.388;6.196;2023-01-29T07:26:23;72722.25;;;-145.32;100.00
14041;BME280;7095;51.388;6.196;2023-01-29T07:28:52;74002.03;;;-145.32;100.00
14041;BME280;7095;51.388;6.196;2023-01-29T07:31:20;72722.25;;;-145.32;100.00
14041;BME280;7095;51.388;6.196;2023-01-29T07:33:50;72978.16;;;-145.32;100.00
14041;BME280;7095;51.388;6.196;2023-01-29T07:36:19;72210.47;;;-145.32;100.00
14041;BME280;7095;51.388;6.196;2023-01-29T07:38:48;73234.09;;;-145.32;100.00
14041;BME280;7095;51.388;6.196;2023-01-29T07:41:17;72210.47;;;-145.32;100.00
14041;BME280;7095;51.388;6.196;2023-01-29T07:43:46;71698.75;;;-145.32;100.00
14041;BME280;7095;51.388;6.196;2023-01-29T07:46:14;71187.13;;;-145.32;100.00
14041;BME280;7095;51.388;6.196;2023-01-29T07:48:43;70931.31;;;-145.32;100.00
14041;BME280;7095;51.388;6.196;2023-01-29T07:51:13;70675.56;;;-145.32;100.00
14041;BME280;7095;51.388;6.196;2023-01-29T07:53:44;70931.31;;;-145.32;100.00
14041;BME280;7095;51.388;6.196;2023-01-29T07:56:13;71954.59;;;-145.32;100.00
14041;BME280;7095;51.388;6.196;2023-01-29T07:58:41;71954.59;;;-145.32;100.00
14041;BME280;7095;51.388;6.196;2023-01-29T08:01:10;71442.94;;;-145.32;100.00
14041;BME280;7095;51.388;6.196;2023-01-29T08:03:38;70128.13;;;-145.32;100.00
14041;BME280;7095;51.388;6.196;2023-01-29T08:06:07;70675.56;;;-145.32;100.00
14041;BME280;7095;51.388;6.196;2023-01-29T08:08:37;70164.06;;;-145.32;100.00
14041;BME280;7095;51.388;6.196;2023-01-29T08:11:05;68897.69;;;-145.32;100.00
14041;BME280;7095;51.388;6.196;2023-01-29T08:13:34;68332.56;;;-145.32;100.00
14041;BME280;7095;51.388;6.196;2023-01-29T08:16:03;68618.13;;;-145.32;100.00
14041;BME280;7095;51.388;6.196;2023-01-29T08:18:32;66741.53;;;-145.32;100.00
14041;BME280;7095;51.388;6.196;2023-01-29T08:21:00;68614.13;;;-145.32;100.00
14041;BME280;7095;51.388;6.196;2023-01-29T08:23:29;67176.66;;;-145.32;100.00
14041;BME280;7095;51.388;6.196;2023-01-29T08:26:01;69183.28;;;-145.32;100.00
14041;BME280;7095;51.388;6.196;2023-01-29T08:28:29;66997.00;;;-145.32;100.00
14041;BME280;7095;51.388;6.196;2023-01-29T08:30:58;68532.25;;;-145.32;100.00
14041;BME280;7095;51.388;6.196;2023-01-29T08:33:28;69395.00;;;-145.32;100.00
14041;BME280;7095;51.388;6.196;2023-01-29T08:36:06;67360.28;;;-145.32;100.00
14041;BME280;7095;51.388;6.196;2023-01-29T08:38:34;68324.59;;;-145.32;100.00
14041;BME280;7095;51.388;6.196;2023-01-29T08:41:05;66416.22;;;-145.32;100.00
14041;BME280;7095;51.388;6.196;2023-01-29T08:43:34;67342.31;;;-145.32;100.00
14041;BME280;7095;51.388;6.196;2023-01-29T08:46:03;65276.91;;;-145.32;100.00
14041;BME280;7095;51.388;6.196;2023-01-29T08:48:32;65241.00;;;-145.32;100.00
14041;BME280;7095;51.388;6.196;2023-01-29T08:51:01;64804.13;;;-145.32;100.00
14041;BME280;7095;51.388;6.196;2023-01-29T08:53:31;64455.09;;;-145.32;100.00
14041;BME280;7095;51.388;6.196;2023-01-29T08:55:59;64411.19;;;-145.32;100.00
14041;BME280;7095;51.388;6.196;2023-01-29T08:58:29;63270.56;;;-145.32;100.00
14041;BME280;7095;51.388;6.196;2023-01-29T09:01:05;63210.75;;;-145.32;100.00
14041;BME280;7095;51.388;6.196;2023-01-29T09:03:34;62604.69;;;-145.32;100.00
14041;BME280;7095;51.388;6.196;2023-01-29T09:06:03;62712.34;;;-145.32;100.00
14041;BME280;7095;51.388;6.196;2023-01-29T09:08:31;62433.28;;;-145.32;100.00
14041;BME280;7095;51.388;6.196;2023-01-29T09:11:00;62405.38;;;-145.32;100.00
14041;BME280;7095;51.388;6.196;2023-01-29T09:13:30;63077.16;;;-145.32;100.00
14041;BME280;7095;51.388;6.196;2023-01-29T09:15:59;62760.19;;;-145.32;100.00
14041;BME280;7095;51.388;6.196;2023-01-29T09:18:28;61106.00;;;-145.32;100.00
14041;BME280;7095;51.388;6.196;2023-01-29T09:20:57;60898.78;;;-145.32;100.00
14041;BME280;7095;51.388;6.196;2023-01-29T09:23:25;60878.84;;;-145.32;100.00
14041;BME280;7095;51.388;6.196;2023-01-29T09:25:54;61305.25;;;-145.32;100.00
14041;BME280;7095;51.388;6.196;2023-01-29T09:28:23;60791.19;;;-145.32;100.00
14041;BME280;7095;51.388;6.196;2023-01-29T09:30:53;60719.47;;;-145.32;100.00
14041;BME280;7095;51.388;6.196;2023-01-29T09:33:22;60398.72;;;-145.32;100.00
14041;BME280;7095;51.388;6.196;2023-01-29T09:35:52;60673.66;;;-145.32;100.00
14041;BME280;7095;51.388;6.196;2023-01-29T09:38:20;60062.06;;;-145.32;100.00
14041;BME280;7095;51.388;6.196;2023-01-29T09:40:56;60520.25;;;-145.32;100.00
14041;BME280;7095;51.388;6.196;2023-01-29T09:43:37;60340.97;;;-145.32;100.00
14041;BME280;7095;51.388;6.196;2023-01-29T09:46:14;59735.41;;;-145.32;100.00
14041;BME280;7095;51.388;6.196;2023-01-29T09:48:45;59721.47;;;-145.32;100.00
14041;BME280;7095;51.388;6.196;2023-01-29T09:51:24;59677.66;;;-145.32;100.00
14041;BME280;7095;51.388;6.196;2023-01-29T09:54:00;59368.97;;;-145.32;100.00
14041;BME280;7095;51.388;6.196;2023-01-29T09:56:31;59458.59;;;-145.32;100.00
14041;BME280;7095;51.388;6.196;2023-01-29T09:59:00;59372.94;;;-145.32;100.00
14041;BME280;7095;51.388;6.196;2023-01-29T10:01:34;58899.00;;;-145.32;100.00
14041;BME280;7095;51.388;6.196;2023-01-29T10:04:24;59042.38;;;-145.32;100.00
14041;BME280;7095;51.388;6.196;2023-01-29T10:07:09;58524.66;;;-145.32;100.00
14041;BME280;7095;51.388;6.196;2023-01-29T10:10:17;58327.56;;;-145.32;100.00
14041;BME280;7095;51.388;6.196;2023-01-29T10:12:58;57979.19;;;-145.32;100.00
14041;BME280;7095;51.388;6.196;2023-01-29T10:15:37;57845.81;;;-145.32;100.00
14041;BME280;7095;51.388;6.196;2023-01-29T10:21:18;58054.81;;;-145.32;100.00
14041;BME280;7095;51.388;6.196;2023-01-29T10:23:59;57698.50;;;-145.32;100.00
14041;BME280;7095;51.388;6.196;2023-01-29T10:26:33;57330.28;;;-145.32;100.00
14041;BME280;7095;51.388;6.196;2023-01-29T10:29:06;57216.81;;;-145.32;100.00
14041;BME280;7095;51.388;6.196;2023-01-29T10:31:37;57545.22;;;-145.32;100.00
14041;BME280;7095;51.388;6.196;2023-01-29T10:34:12;57501.44;;;-145.32;100.00
14041;BME280;7095;51.388;6.196;2023-01-29T10:36:46;57298.44;;;-145.32;100.00
14041;BME280;7095;51.388;6.196;2023-01-29T10:39:15;57481.53;;;-145.32;100.00
14041;BME280;7095;51.388;6.196;2023-01-29T10:42:00;57722.38;;;-145.32;100.00
14041;BME280;7095;51.388;6.196;2023-01-29T10:44:58;57073.53;;;-145.32;100.00
14041;BME280;7095;51.388;6.196;2023-01-29T10:47:59;56880.50;;;-145.32;100.00
14041;BME280;7095;51.388;6.196;2023-01-29T10:50:45;56729.25;;;-145.32;100.00
14041;BME280;7095;51.388;6.196;2023-01-29T10:53:37;57031.75;;;-145.32;100.00
14041;BME280;7095;51.388;6.196;2023-01-29T10:56:24;56701.41;;;-145.32;100.00
14041;BME280;7095;51.388;6.196;2023-01-29T10:58:59;56611.84;;;-145.32;100.00
14041;BME280;7095;51.388;6.196;2023-01-29T11:01:31;56814.81;;;-145.32;100.00
14041;BME280;7095;51.388;6.196;2023-01-29T11:04:02;56593.94;;;-145.32;100.00
14041;BME280;7095;51.388;6.196;2023-01-29T11:06:32;56605.88;;;-145.32;100.00
14041;BME280;7095;51.388;6.196;2023-01-29T11:09:05;56599.91;;;-145.32;100.00
14041;BME280;7095;51.388;6.196;2023-01-29T11:11:40;56572.06;;;-145.32;100.00
14041;BME280;7095;51.388;6.196;2023-01-29T11:14:13;56389.00;;;-145.32;100.00
14041;BME280;7095;51.388;6.196;2023-01-29T11:16:46;56295.47;;;-145.32;100.00
14041;BME280;7095;51.388;6.196;2023-01-29T11:19:15;56261.66;;;-145.32;100.00
14041;BME280;7095;51.388;6.196;2023-01-29T11:21:52;56341.22;;;-145.32;100.00
14041;BME280;7095;51.388;6.196;2023-01-29T11:24:25;56128.34;;;-145.32;100.00
14041;BME280;7095;51.388;6.196;2023-01-29T11:26:56;56160.19;;;-145.32;100.00
14041;BME280;7095;51.388;6.196;2023-01-29T11:29:44;55993.06;;;-145.32;100.00
14041;BME280;7095;51.388;6.196;2023-01-29T11:32:23;56074.63;;;-145.32;100.00
14041;BME280;7095;51.388;6.196;2023-01-29T11:34:58;55963.22;;;-145.32;100.00
14041;BME280;7095;51.388;6.196;2023-01-29T11:37:33;55841.84;;;-145.32;100.00
14041;BME280;7095;51.388;6.196;2023-01-29T11:40:38;55817.97;;;-145.32;100.00
14041;BME280;7095;51.388;6.196;2023-01-29T11:43:28;55931.38;;;-145.32;100.00
14041;BME280;7095;51.388;6.196;2023-01-29T11:46:00;55937.34;;;-145.32;100.00
14041;BME280;7095;51.388;6.196;2023-01-29T11:48:39;55796.09;;;-145.32;100.00
14041;BME280;7095;51.388;6.196;2023-01-29T11:51:11;55877.66;;;-145.32;100.00
14041;BME280;7095;51.388;6.196;2023-01-29T11:53:50;55664.78;;;-145.32;100.00
14041;BME280;7095;51.388;6.196;2023-01-29T11:56:22;55678.72;;;-145.32;100.00
14041;BME280;7095;51.388;6.196;2023-01-29T11:58:55;55786.16;;;-145.32;100.00
14041;BME280;7095;51.388;6.196;2023-01-29T12:01:30;55684.69;;;-145.32;100.00
14041;BME280;7095;51.388;6.196;2023-01-29T12:04:00;55577.25;;;-145.32;100.00
14041;BME280;7095;51.388;6.196;2023-01-29T12:06:33;55690.66;;;-145.32;100.00
14041;BME280;7095;51.388;6.196;2023-01-29T12:09:09;55543.44;;;-145.32;100.00
14041;BME280;7095;51.388;6.196;2023-01-29T12:11:43;55615.06;;;-145.32;100.00
14041;BME280;7095;51.388;6.196;2023-01-29T12:14:26;55348.50;;;-145.32;100.00
14041;BME280;7095;51.388;6.196;2023-01-29T12:16:58;55390.28;;;-145.32;100.00
14041;BME280;7095;51.388;6.196;2023-01-29T12:19:34;55447.97;;;-145.32;100.00
14041;BME280;7095;51.388;6.196;2023-01-29T12:22:11;55346.50;;;-145.32;100.00
14041;BME280;7095;51.388;6.196;2023-01-29T12:24:48;55388.28;;;-145.32;100.00
14041;BME280;7095;51.388;6.196;2023-01-29T12:27:23;55284.84;;;-145.32;100.00
14041;BME280;7095;51.388;6.196;2023-01-29T12:29:56;55282.88;;;-145.32;100.00
14041;BME280;7095;51.388;6.196;2023-01-29T12:32:31;55195.34;;;-145.32;100.00
14041;BME280;7095;51.388;6.196;2023-01-29T12:35:08;55211.25;;;-145.32;100.00
14041;BME280;7095;51.388;6.196;2023-01-29T12:37:47;55093.91;;;-145.32;100.00
14041;BME280;7095;51.388;6.196;2023-01-29T12:40:24;55141.63;;;-145.32;100.00
14041;BME280;7095;51.388;6.196;2023-01-29T12:43:01;55101.84;;;-145.32;100.00
14041;BME280;7095;51.388;6.196;2023-01-29T12:45:33;55060.09;;;-145.32;100.00
14041;BME280;7095;51.388;6.196;2023-01-29T12:48:06;55036.22;;;-145.32;100.00
14041;BME280;7095;51.388;6.196;2023-01-29T12:50:36;55062.09;;;-145.32;100.00
14041;BME280;7095;51.388;6.196;2023-01-29T12:53:12;55020.31;;;-145.32;100.00
14041;BME280;7095;51.388;6.196;2023-01-29T12:55:49;54992.47;;;-145.32;100.00
14041;BME280;7095;51.388;6.196;2023-01-29T12:58:27;54986.50;;;-145.32;100.00
14041;BME280;7095;51.388;6.196;2023-01-29T13:01:02;54986.50;;;-145.32;100.00
14041;BME280;7095;51.388;6.196;2023-01-29T13:03:36;54954.69;;;-145.32;100.00
14041;BME280;7095;51.388;6.196;2023-01-29T13:06:11;54950.69;;;-145.32;100.00
14041;BME280;7095;51.388;6.196;2023-01-29T13:08:44;54928.81;;;-145.32;100.00
14041;BME280;7095;51.388;6.196;2023-01-29T13:11:19;54914.91;;;-145.32;100.00
14041;BME280;7095;51.388;6.196;2023-01-29T13:13:53;54910.91;;;-145.32;100.00
14041;BME280;7095;51.388;6.196;2023-01-29T13:16:26;54887.06;;;-145.32;100.00
14041;BME280;7095;51.388;6.196;2023-01-29T13:18:57;54821.41;;;-145.32;100.00